PWSweather.com
Personal Weather Stations
Station Observations
KJ4AJP
Beautiful Downtown Gardner, Martin, TN 38237

Beautiful Downtown GardnerMartin, TN 38237

Lat: 36.358, Lon: -88.8994

Elevation: 384.3

Station Type: TP1080WC

http://weather.mambm.com/

High Low Average
Temperature 94.6°F34.8°C 73.6°F23.1°C 83.3°F28.5°C
Dew Point 83.6°F28.7°C 73.3°F22.9°C 77.9°F25.5°C
Winds 6.9 mph 11.1 kmh Calm Calm 2.0 mph SSW3.2 kmh SSW
Wind Gusts 13.0 mph20.9 kmh 1.6 mph2.6 kmh 6.0 mph9.7 kmh
Humidity 99% 63% 85%
Pressure 30.10 in1019.3 mb 29.97 in1014.9 mb -
Precipitation 0.00 in0.0 mm - -
Hour Temp Dew Point Humidity Winds Wind Gusts Pressure Precip Precip Rate Daily Precip Total
12:00 AM 77.0°F25.0°C 73.9°F23.3°C 90% 2.2 mph SSE3.5 kmh SSE 7.6 mph12.2 kmh 30.04 in1017.3 mb 0.00 in0.0 mm 0.00 in0.0 mm 0.00 in0.0 mm
12:15 AM 77.0°F25.0°C 74.2°F23.4°C 91% 0.7 mph S1.1 kmh S 6.0 mph9.7 kmh 30.04 in1017.3 mb 0.00 in0.0 mm 0.00 in0.0 mm 0.00 in0.0 mm
12:30 AM 76.8°F24.9°C 74.0°F23.3°C 91% 2.2 mph S3.5 kmh S 5.4 mph8.7 kmh 30.03 in1016.9 mb 0.00 in0.0 mm 0.00 in0.0 mm 0.00 in0.0 mm
12:45 AM 76.8°F24.9°C 74.4°F23.6°C 92% 2.2 mph S3.5 kmh S 3.8 mph6.1 kmh 30.04 in1017.3 mb 0.00 in0.0 mm 0.00 in0.0 mm 0.00 in0.0 mm
01:00 AM 76.5°F24.7°C 74.0°F23.3°C 92% 1.6 mph SSE2.6 kmh SSE 4.5 mph7.2 kmh 30.03 in1016.9 mb 0.00 in0.0 mm 0.00 in0.0 mm 0.00 in0.0 mm
01:15 AM 75.9°F24.4°C 73.8°F23.2°C 93% 0.7 mph S1.1 kmh S 3.1 mph5.0 kmh 30.03 in1016.9 mb 0.00 in0.0 mm 0.00 in0.0 mm 0.00 in0.0 mm
01:30 AM 75.6°F24.2°C 74.1°F23.4°C 95% Calm Calm 4.5 mph7.2 kmh 30.04 in1017.3 mb 0.00 in0.0 mm 0.00 in0.0 mm 0.00 in0.0 mm
01:45 AM 75.4°F24.1°C 74.2°F23.4°C 96% 0.7 mph SSW1.1 kmh SSW 3.8 mph6.1 kmh 30.03 in1016.9 mb 0.00 in0.0 mm 0.00 in0.0 mm 0.00 in0.0 mm
02:00 AM 75.2°F24.0°C 74.3°F23.5°C 97% 1.6 mph S2.6 kmh S 3.8 mph6.1 kmh 30.03 in1016.9 mb 0.00 in0.0 mm 0.00 in0.0 mm 0.00 in0.0 mm
02:15 AM 75.0°F23.9°C 74.2°F23.4°C 97% 1.6 mph S2.6 kmh S 3.8 mph6.1 kmh 30.02 in1016.6 mb 0.00 in0.0 mm 0.00 in0.0 mm 0.00 in0.0 mm
02:30 AM 74.8°F23.8°C 74.3°F23.5°C 98% Calm Calm 3.8 mph6.1 kmh 30.02 in1016.6 mb 0.00 in0.0 mm 0.00 in0.0 mm 0.00 in0.0 mm
02:45 AM 74.7°F23.7°C 74.4°F23.6°C 99% Calm Calm 3.1 mph5.0 kmh 30.02 in1016.6 mb 0.00 in0.0 mm 0.00 in0.0 mm 0.00 in0.0 mm
03:00 AM 74.5°F23.6°C 74.2°F23.4°C 99% 0.7 mph S1.1 kmh S 3.8 mph6.1 kmh 30.02 in1016.6 mb 0.00 in0.0 mm 0.00 in0.0 mm 0.00 in0.0 mm
03:15 AM 74.3°F23.5°C 74.1°F23.4°C 99% Calm Calm 2.2 mph3.5 kmh 30.01 in1016.3 mb 0.00 in0.0 mm 0.00 in0.0 mm 0.00 in0.0 mm
03:30 AM 74.1°F23.4°C 73.9°F23.3°C 99% Calm Calm 1.6 mph2.6 kmh 30.01 in1016.3 mb 0.00 in0.0 mm 0.00 in0.0 mm 0.00 in0.0 mm
03:45 AM 73.8°F23.2°C 73.5°F23.1°C 99% 1.6 mph SE2.6 kmh SE 3.1 mph5.0 kmh 30.02 in1016.6 mb 0.00 in0.0 mm 0.00 in0.0 mm 0.00 in0.0 mm
04:00 AM 73.9°F23.3°C 73.7°F23.2°C 99% 0.7 mph SSE1.1 kmh SSE 4.5 mph7.2 kmh 30.02 in1016.6 mb 0.00 in0.0 mm 0.00 in0.0 mm 0.00 in0.0 mm
04:15 AM 73.8°F23.2°C 73.5°F23.1°C 99% 0.7 mph SE1.1 kmh SE 2.2 mph3.5 kmh 30.02 in1016.6 mb 0.00 in0.0 mm 0.00 in0.0 mm 0.00 in0.0 mm
04:30 AM 73.8°F23.2°C 73.5°F23.1°C 99% 0.7 mph SE1.1 kmh SE 3.1 mph5.0 kmh 30.03 in1016.9 mb 0.00 in0.0 mm 0.00 in0.0 mm 0.00 in0.0 mm
04:45 AM 73.6°F23.1°C 73.3°F22.9°C 99% Calm Calm 4.5 mph7.2 kmh 30.04 in1017.3 mb 0.00 in0.0 mm 0.00 in0.0 mm 0.00 in0.0 mm
05:00 AM 73.6°F23.1°C 73.3°F22.9°C 99% 0.7 mph SE1.1 kmh SE 4.5 mph7.2 kmh 30.04 in1017.3 mb 0.00 in0.0 mm 0.00 in0.0 mm 0.00 in0.0 mm
05:15 AM 73.6°F23.1°C 73.3°F22.9°C 99% 1.6 mph SSE2.6 kmh SSE 3.1 mph5.0 kmh 30.04 in1017.3 mb 0.00 in0.0 mm 0.00 in0.0 mm 0.00 in0.0 mm
05:30 AM 73.6°F23.1°C 73.3°F22.9°C 99% 0.7 mph SSE1.1 kmh SSE 5.4 mph8.7 kmh 30.05 in1017.6 mb 0.00 in0.0 mm 0.00 in0.0 mm 0.00 in0.0 mm
05:45 AM 73.6°F23.1°C 73.3°F22.9°C 99% 1.6 mph SSE2.6 kmh SSE 4.5 mph7.2 kmh 30.06 in1017.9 mb 0.00 in0.0 mm 0.00 in0.0 mm 0.00 in0.0 mm
06:00 AM 73.6°F23.1°C 73.3°F22.9°C 99% 0.7 mph SE1.1 kmh SE 4.5 mph7.2 kmh 30.05 in1017.6 mb 0.00 in0.0 mm 0.00 in0.0 mm 0.00 in0.0 mm
06:15 AM 73.8°F23.2°C 73.5°F23.1°C 99% 1.6 mph S2.6 kmh S 5.4 mph8.7 kmh 30.06 in1017.9 mb 0.00 in0.0 mm 0.00 in0.0 mm 0.00 in0.0 mm
06:30 AM 74.1°F23.4°C 73.9°F23.3°C 99% Calm Calm 4.5 mph7.2 kmh 30.06 in1017.9 mb 0.00 in0.0 mm 0.00 in0.0 mm 0.00 in0.0 mm
06:45 AM 74.5°F23.6°C 74.2°F23.4°C 99% 3.1 mph SSE5.0 kmh SSE 5.4 mph8.7 kmh 30.06 in1017.9 mb 0.00 in0.0 mm 0.00 in0.0 mm 0.00 in0.0 mm
07:00 AM 75.0°F23.9°C 74.8°F23.8°C 99% 1.6 mph S2.6 kmh S 5.4 mph8.7 kmh 30.06 in1017.9 mb 0.00 in0.0 mm 0.00 in0.0 mm 0.00 in0.0 mm
07:15 AM 75.6°F24.2°C 75.3°F24.1°C 99% 4.5 mph S7.2 kmh S 7.6 mph12.2 kmh 30.07 in1018.3 mb 0.00 in0.0 mm 0.00 in0.0 mm 0.00 in0.0 mm
07:30 AM 76.3°F24.6°C 76.0°F24.4°C 99% 4.5 mph S7.2 kmh S 7.6 mph12.2 kmh 30.08 in1018.6 mb 0.00 in0.0 mm 0.00 in0.0 mm 0.00 in0.0 mm
07:45 AM 77.2°F25.1°C 76.9°F24.9°C 99% 1.6 mph S2.6 kmh S 9.2 mph14.8 kmh 30.08 in1018.6 mb 0.00 in0.0 mm 0.00 in0.0 mm 0.00 in0.0 mm
08:00 AM 78.1°F25.6°C 77.8°F25.4°C 99% 2.2 mph S3.5 kmh S 6.9 mph11.1 kmh 30.09 in1019.0 mb 0.00 in0.0 mm 0.00 in0.0 mm 0.00 in0.0 mm
08:15 AM 79.0°F26.1°C 78.7°F25.9°C 99% 3.8 mph SSW6.1 kmh SSW 9.2 mph14.8 kmh 30.09 in1019.0 mb 0.00 in0.0 mm 0.00 in0.0 mm 0.00 in0.0 mm
08:30 AM 79.9°F26.6°C 79.3°F26.3°C 98% 1.6 mph SW2.6 kmh SW 9.8 mph15.8 kmh 30.09 in1019.0 mb 0.00 in0.0 mm 0.00 in0.0 mm 0.00 in0.0 mm
08:45 AM 80.6°F27.0°C 79.4°F26.3°C 96% 3.1 mph SSW5.0 kmh SSW 9.2 mph14.8 kmh 30.09 in1019.0 mb 0.00 in0.0 mm 0.00 in0.0 mm 0.00 in0.0 mm
09:00 AM 81.7°F27.6°C 80.2°F26.8°C 95% 2.2 mph SW3.5 kmh SW 7.6 mph12.2 kmh 30.10 in1019.3 mb 0.00 in0.0 mm 0.00 in0.0 mm 0.00 in0.0 mm
09:15 AM 82.8°F28.2°C 80.6°F27.0°C 93% 2.2 mph SW3.5 kmh SW 7.6 mph12.2 kmh 30.09 in1019.0 mb 0.00 in0.0 mm 0.00 in0.0 mm 0.00 in0.0 mm
09:30 AM 84.0°F28.9°C 80.8°F27.1°C 90% 5.4 mph SW8.7 kmh SW 10.7 mph17.2 kmh 30.09 in1019.0 mb 0.00 in0.0 mm 0.00 in0.0 mm 0.00 in0.0 mm
09:45 AM 85.6°F29.8°C 81.8°F27.7°C 88% 3.1 mph WSW5.0 kmh WSW 8.3 mph13.4 kmh 30.09 in1019.0 mb 0.00 in0.0 mm 0.00 in0.0 mm 0.00 in0.0 mm
10:00 AM 86.4°F30.2°C 81.8°F27.7°C 86% 5.4 mph SW8.7 kmh SW 10.7 mph17.2 kmh 30.09 in1019.0 mb 0.00 in0.0 mm 0.00 in0.0 mm 0.00 in0.0 mm
10:15 AM 86.7°F30.4°C 81.8°F27.7°C 85% 3.8 mph SW6.1 kmh SW 10.7 mph17.2 kmh 30.09 in1019.0 mb 0.00 in0.0 mm 0.00 in0.0 mm 0.00 in0.0 mm
10:30 AM 87.1°F30.6°C 81.7°F27.6°C 84% 4.5 mph SW7.2 kmh SW 13.0 mph20.9 kmh 30.10 in1019.3 mb 0.00 in0.0 mm 0.00 in0.0 mm 0.00 in0.0 mm
10:45 AM 87.6°F30.9°C 81.9°F27.7°C 83% 4.5 mph WNW7.2 kmh WNW 9.2 mph14.8 kmh 30.10 in1019.3 mb 0.00 in0.0 mm 0.00 in0.0 mm 0.00 in0.0 mm
11:00 AM 88.0°F31.1°C 81.9°F27.7°C 82% 5.4 mph SW8.7 kmh SW 10.7 mph17.2 kmh 30.09 in1019.0 mb 0.00 in0.0 mm 0.00 in0.0 mm 0.00 in0.0 mm
11:15 AM 88.7°F31.5°C 82.6°F28.1°C 82% 2.2 mph SW3.5 kmh SW 8.3 mph13.4 kmh 30.10 in1019.3 mb 0.00 in0.0 mm 0.00 in0.0 mm 0.00 in0.0 mm
11:30 AM 90.1°F32.3°C 82.8°F28.2°C 79% 2.2 mph WSW3.5 kmh WSW 9.2 mph14.8 kmh 30.09 in1019.0 mb 0.00 in0.0 mm 0.00 in0.0 mm 0.00 in0.0 mm
11:45 AM 90.1°F32.3°C 82.0°F27.8°C 77% 3.1 mph SW5.0 kmh SW 9.8 mph15.8 kmh 30.09 in1019.0 mb 0.00 in0.0 mm 0.00 in0.0 mm 0.00 in0.0 mm
12:00 PM 91.8°F33.2°C 83.6°F28.7°C 77% 1.6 mph W2.6 kmh W 9.2 mph14.8 kmh 30.09 in1019.0 mb 0.00 in0.0 mm 0.00 in0.0 mm 0.00 in0.0 mm
12:15 PM 92.1°F33.4°C 82.3°F27.9°C 73% 6.9 mph WSW11.1 kmh WSW 9.2 mph14.8 kmh 30.08 in1018.6 mb 0.00 in0.0 mm 0.00 in0.0 mm 0.00 in0.0 mm
12:30 PM 92.7°F33.7°C 83.3°F28.5°C 74% 0.7 mph SW1.1 kmh SW 9.8 mph15.8 kmh 30.08 in1018.6 mb 0.00 in0.0 mm 0.00 in0.0 mm 0.00 in0.0 mm
12:45 PM 93.7°F34.3°C 83.0°F28.3°C 71% 3.1 mph SSW5.0 kmh SSW 7.6 mph12.2 kmh 30.07 in1018.3 mb 0.00 in0.0 mm 0.00 in0.0 mm 0.00 in0.0 mm
01:00 PM 93.0°F33.9°C 81.4°F27.4°C 69% 3.1 mph SW5.0 kmh SW 9.8 mph15.8 kmh 30.06 in1017.9 mb 0.00 in0.0 mm 0.00 in0.0 mm 0.00 in0.0 mm
01:15 PM 92.5°F33.6°C 81.8°F27.7°C 71% 0.7 mph SW1.1 kmh SW 9.2 mph14.8 kmh 30.06 in1017.9 mb 0.00 in0.0 mm 0.00 in0.0 mm 0.00 in0.0 mm
01:30 PM 93.4°F34.1°C 81.8°F27.7°C 69% 2.2 mph SSW3.5 kmh SSW 9.2 mph14.8 kmh 30.06 in1017.9 mb 0.00 in0.0 mm 0.00 in0.0 mm 0.00 in0.0 mm
01:45 PM 93.4°F34.1°C 83.1°F28.4°C 72% 2.2 mph SW3.5 kmh SW 6.0 mph9.7 kmh 30.05 in1017.6 mb 0.00 in0.0 mm 0.00 in0.0 mm 0.00 in0.0 mm
02:00 PM 93.6°F34.2°C 82.4°F28.0°C 70% 4.5 mph SW7.2 kmh SW 9.2 mph14.8 kmh 30.05 in1017.6 mb 0.00 in0.0 mm 0.00 in0.0 mm 0.00 in0.0 mm
02:15 PM 94.3°F34.6°C 83.1°F28.4°C 70% 2.2 mph W3.5 kmh W 10.7 mph17.2 kmh 30.05 in1017.6 mb 0.00 in0.0 mm 0.00 in0.0 mm 0.00 in0.0 mm
02:30 PM 94.6°F34.8°C 83.0°F28.3°C 69% 3.1 mph WSW5.0 kmh WSW 8.3 mph13.4 kmh 30.04 in1017.3 mb 0.00 in0.0 mm 0.00 in0.0 mm 0.00 in0.0 mm
02:45 PM 93.6°F34.2°C 81.9°F27.7°C 69% 3.1 mph WSW5.0 kmh WSW 9.2 mph14.8 kmh 30.04 in1017.3 mb 0.00 in0.0 mm 0.00 in0.0 mm 0.00 in0.0 mm
03:00 PM 93.7°F34.3°C 82.1°F27.8°C 69% 1.6 mph SW2.6 kmh SW 11.4 mph18.3 kmh 30.02 in1016.6 mb 0.00 in0.0 mm 0.00 in0.0 mm 0.00 in0.0 mm
03:15 PM 93.7°F34.3°C 82.1°F27.8°C 69% 3.1 mph WSW5.0 kmh WSW 8.3 mph13.4 kmh 30.02 in1016.6 mb 0.00 in0.0 mm 0.00 in0.0 mm 0.00 in0.0 mm
03:30 PM 93.7°F34.3°C 81.2°F27.3°C 67% 3.8 mph SW6.1 kmh SW 10.7 mph17.2 kmh 30.02 in1016.6 mb 0.00 in0.0 mm 0.00 in0.0 mm 0.00 in0.0 mm
03:45 PM 93.0°F33.9°C 80.5°F26.9°C 67% 3.1 mph SW5.0 kmh SW 6.0 mph9.7 kmh 30.02 in1016.6 mb 0.00 in0.0 mm 0.00 in0.0 mm 0.00 in0.0 mm
04:00 PM 93.7°F34.3°C 80.8°F27.1°C 66% 2.2 mph SW3.5 kmh SW 7.6 mph12.2 kmh 30.01 in1016.3 mb 0.00 in0.0 mm 0.00 in0.0 mm 0.00 in0.0 mm
04:15 PM 94.5°F34.7°C 81.0°F27.2°C 65% 3.8 mph SW6.1 kmh SW 9.2 mph14.8 kmh 30.01 in1016.3 mb 0.00 in0.0 mm 0.00 in0.0 mm 0.00 in0.0 mm
04:30 PM 94.3°F34.6°C 79.8°F26.6°C 63% 4.5 mph S7.2 kmh S 12.1 mph19.5 kmh 30.00 in1015.9 mb 0.00 in0.0 mm 0.00 in0.0 mm 0.00 in0.0 mm
04:45 PM 94.1°F34.5°C 79.7°F26.5°C 63% 3.8 mph SSW6.1 kmh SSW 9.8 mph15.8 kmh 30.00 in1015.9 mb 0.00 in0.0 mm 0.00 in0.0 mm 0.00 in0.0 mm
05:00 PM 94.1°F34.5°C 79.7°F26.5°C 63% 4.5 mph SW7.2 kmh SW 9.2 mph14.8 kmh 30.00 in1015.9 mb 0.00 in0.0 mm 0.00 in0.0 mm 0.00 in0.0 mm
05:15 PM 94.1°F34.5°C 79.7°F26.5°C 63% 4.5 mph SW7.2 kmh SW 9.8 mph15.8 kmh 30.00 in1015.9 mb 0.00 in0.0 mm 0.00 in0.0 mm 0.00 in0.0 mm
05:30 PM 93.0°F33.9°C 79.6°F26.4°C 65% 1.6 mph SSW2.6 kmh SSW 7.6 mph12.2 kmh 29.99 in1015.6 mb 0.00 in0.0 mm 0.00 in0.0 mm 0.00 in0.0 mm
05:45 PM 91.8°F33.2°C 78.4°F25.8°C 65% 1.6 mph SSW2.6 kmh SSW 9.2 mph14.8 kmh 29.99 in1015.6 mb 0.00 in0.0 mm 0.00 in0.0 mm 0.00 in0.0 mm
06:00 PM 91.2°F32.9°C 78.8°F26.0°C 67% 3.1 mph WSW5.0 kmh WSW 6.9 mph11.1 kmh 29.98 in1015.2 mb 0.00 in0.0 mm 0.00 in0.0 mm 0.00 in0.0 mm
06:15 PM 90.7°F32.6°C 78.7°F25.9°C 68% 0.7 mph WSW1.1 kmh WSW 7.6 mph12.2 kmh 29.97 in1014.9 mb 0.00 in0.0 mm 0.00 in0.0 mm 0.00 in0.0 mm
06:30 PM 90.1°F32.3°C 77.8°F25.4°C 67% 5.4 mph SSW8.7 kmh SSW 7.6 mph12.2 kmh 29.98 in1015.2 mb 0.00 in0.0 mm 0.00 in0.0 mm 0.00 in0.0 mm
06:45 PM 89.8°F32.1°C 78.3°F25.7°C 69% 1.6 mph SW2.6 kmh SW 7.6 mph12.2 kmh 29.98 in1015.2 mb 0.00 in0.0 mm 0.00 in0.0 mm 0.00 in0.0 mm
07:00 PM 89.2°F31.8°C 78.3°F25.7°C 70% 2.2 mph SW3.5 kmh SW 8.3 mph13.4 kmh 29.98 in1015.2 mb 0.00 in0.0 mm 0.00 in0.0 mm 0.00 in0.0 mm
07:15 PM 88.5°F31.4°C 78.0°F25.6°C 71% 1.6 mph SW2.6 kmh SW 5.4 mph8.7 kmh 29.98 in1015.2 mb 0.00 in0.0 mm 0.00 in0.0 mm 0.00 in0.0 mm
07:30 PM 88.0°F31.1°C 77.9°F25.5°C 72% 2.2 mph SW3.5 kmh SW 4.5 mph7.2 kmh 29.97 in1014.9 mb 0.00 in0.0 mm 0.00 in0.0 mm 0.00 in0.0 mm
07:45 PM 87.3°F30.7°C 78.0°F25.6°C 74% 0.7 mph S1.1 kmh S 2.2 mph3.5 kmh 29.98 in1015.2 mb 0.00 in0.0 mm 0.00 in0.0 mm 0.00 in0.0 mm
08:00 PM 86.4°F30.2°C 78.4°F25.8°C 77% 0.7 mph S1.1 kmh S 2.2 mph3.5 kmh 29.98 in1015.2 mb 0.00 in0.0 mm 0.00 in0.0 mm 0.00 in0.0 mm
08:15 PM 85.3°F29.6°C 78.1°F25.6°C 79% 0.7 mph S1.1 kmh S 3.1 mph5.0 kmh 29.98 in1015.2 mb 0.00 in0.0 mm 0.00 in0.0 mm 0.00 in0.0 mm
08:30 PM 84.0°F28.9°C 77.6°F25.3°C 81% 0.7 mph S1.1 kmh S 2.2 mph3.5 kmh 29.98 in1015.2 mb 0.00 in0.0 mm 0.00 in0.0 mm 0.00 in0.0 mm
08:45 PM 82.8°F28.2°C 77.5°F25.3°C 84% 0.7 mph SE1.1 kmh SE 1.6 mph2.6 kmh 29.98 in1015.2 mb 0.00 in0.0 mm 0.00 in0.0 mm 0.00 in0.0 mm
09:00 PM 81.7°F27.6°C 77.1°F25.1°C 86% Calm Calm 1.6 mph2.6 kmh 29.98 in1015.2 mb 0.00 in0.0 mm 0.00 in0.0 mm 0.00 in0.0 mm
09:15 PM 80.8°F27.1°C 76.6°F24.8°C 87% Calm Calm 1.6 mph2.6 kmh 29.99 in1015.6 mb 0.00 in0.0 mm 0.00 in0.0 mm 0.00 in0.0 mm
09:30 PM 79.9°F26.6°C 76.4°F24.7°C 89% 2.2 mph SE3.5 kmh SE 3.1 mph5.0 kmh 30.00 in1015.9 mb 0.00 in0.0 mm 0.00 in0.0 mm 0.00 in0.0 mm
09:45 PM 79.5°F26.4°C 76.4°F24.7°C 90% 0.7 mph SE1.1 kmh SE 3.1 mph5.0 kmh 30.01 in1016.3 mb 0.00 in0.0 mm 0.00 in0.0 mm 0.00 in0.0 mm
10:00 PM 79.2°F26.2°C 76.4°F24.7°C 91% Calm Calm 2.2 mph3.5 kmh 30.01 in1016.3 mb 0.00 in0.0 mm 0.00 in0.0 mm 0.00 in0.0 mm
10:15 PM 78.8°F26.0°C 76.0°F24.4°C 91% Calm Calm 2.2 mph3.5 kmh 30.01 in1016.3 mb 0.00 in0.0 mm 0.00 in0.0 mm 0.00 in0.0 mm
10:30 PM 78.6°F25.9°C 75.8°F24.3°C 91% Calm Calm 3.1 mph5.0 kmh 30.01 in1016.3 mb 0.00 in0.0 mm 0.00 in0.0 mm 0.00 in0.0 mm
10:45 PM 78.4°F25.8°C 76.0°F24.4°C 92% 0.7 mph S1.1 kmh S 2.2 mph3.5 kmh 30.01 in1016.3 mb 0.00 in0.0 mm 0.00 in0.0 mm 0.00 in0.0 mm
11:00 PM 78.3°F25.7°C 75.8°F24.3°C 92% 0.7 mph SSE1.1 kmh SSE 3.8 mph6.1 kmh 30.02 in1016.6 mb 0.00 in0.0 mm 0.00 in0.0 mm 0.00 in0.0 mm
11:15 PM 78.3°F25.7°C 75.8°F24.3°C 92% 1.6 mph SW2.6 kmh SW 2.2 mph3.5 kmh 30.02 in1016.6 mb 0.00 in0.0 mm 0.00 in0.0 mm 0.00 in0.0 mm
11:30 PM 78.1°F25.6°C 75.9°F24.4°C 93% Calm Calm 3.8 mph6.1 kmh 30.02 in1016.6 mb 0.00 in0.0 mm 0.00 in0.0 mm 0.00 in0.0 mm
11:45 PM 77.9°F25.5°C 75.8°F24.3°C 93% 0.7 mph S1.1 kmh S 3.8 mph6.1 kmh 30.02 in1016.6 mb 0.00 in0.0 mm 0.00 in0.0 mm 0.00 in0.0 mm